Time;durP1;ratioP1;P1;durP2;ratioP2;P2;SDS_P1;SDS_P2;PMS_P1;PMS_P2;Temp;Humidity;BMP_temperature;BMP_pressure;BME280_temperature;BME280_humidity;BME280_pressure;Samples;Min_cycle;Max_cycle;Signal;HPM_P1;HPM_P2
2021/12/01 00:00:56;;;;;;;0.50;0.50;;;4.90;97.80;;;;;;5000188;28;20030;-72
2021/12/01 00:03:22;;;;;;;0.40;0.40;;;4.90;97.80;;;;;;5010346;28;20056;-72
2021/12/01 00:05:48;;;;;;;0.55;0.47;;;4.90;97.90;;;;;;5000283;28;20029;-72
2021/12/01 00:08:15;;;;;;;0.47;0.40;;;5.00;97.90;;;;;;5007638;28;20112;-72
2021/12/01 00:10:41;;;;;;;;;;;5.00;97.90;;;;;;5019656;28;20018;-73
2021/12/01 00:13:09;;;;;;;0.55;0.55;;;5.00;97.80;;;;;;5000784;28;19920;-71
2021/12/01 00:15:39;;;;;;;0.93;0.57;;;5.00;98.00;;;;;;5002534;28;20018;-72
2021/12/01 00:18:04;;;;;;;1.90;0.63;;;5.10;97.90;;;;;;4997246;28;20022;-72
2021/12/01 00:20:32;;;;;;;0.77;0.43;;;5.10;98.10;;;;;;5013959;28;20055;-72
2021/12/01 00:22:59;;;;;;;0.52;0.52;;;5.10;98.10;;;;;;5006157;28;20371;-72
2021/12/01 00:25:27;;;;;;;0.40;0.40;;;5.10;98.20;;;;;;5003511;28;20022;-72
2021/12/01 00:27:55;;;;;;;0.32;0.32;;;5.10;98.10;;;;;;5000522;28;20107;-72
2021/12/01 00:30:22;;;;;;;0.40;0.30;;;5.20;98.10;;;;;;5013392;28;20009;-72
2021/12/01 00:32:47;;;;;;;;;;;5.20;98.20;;;;;;5021556;28;20025;-72
2021/12/01 00:35:14;;;;;;;0.20;0.20;;;5.20;97.80;;;;;;5008958;28;20416;-72
2021/12/01 00:37:42;;;;;;;0.30;0.30;;;5.30;97.80;;;;;;5010338;28;20192;-72
2021/12/01 00:40:11;;;;;;;0.22;0.20;;;5.40;97.50;;;;;;5007233;28;20483;-72
2021/12/01 00:42:39;;;;;;;0.45;0.30;;;5.40;97.40;;;;;;5007961;28;20948;-72
2021/12/01 00:45:09;;;;;;;0.20;0.20;;;5.40;97.40;;;;;;5003546;28;20078;-72
2021/12/01 00:47:50;;;;;;;0.30;0.20;;;5.50;97.30;;;;;;5007337;28;20418;-72
2021/12/01 00:50:27;;;;;;;0.10;0.10;;;5.50;97.10;;;;;;5010900;28;20021;-72
2021/12/01 00:52:54;;;;;;;;;;;5.60;97.20;;;;;;5012512;28;20065;-73
2021/12/01 00:55:21;;;;;;;0.65;0.30;;;5.60;97.20;;;;;;5011130;28;19920;-72
2021/12/01 00:57:50;;;;;;;0.20;0.10;;;5.70;97.40;;;;;;5014114;28;20437;-72
2021/12/01 01:00:17;;;;;;;0.10;0.10;;;5.70;97.20;;;;;;5005750;28;20021;-72
2021/12/01 01:02:44;;;;;;;0.63;0.22;;;5.70;97.20;;;;;;5009901;28;20128;-72
2021/12/01 01:05:10;;;;;;;0.10;0.10;;;5.70;97.10;;;;;;5007990;28;20057;-72
2021/12/01 01:07:36;;;;;;;0.10;0.10;;;5.80;97.10;;;;;;5002688;28;20163;-73
2021/12/01 01:18:23;;;;;;;0.10;0.10;;;5.90;97.00;;;;;;5000206;28;20036;-72
2021/12/01 01:20:49;;;;;;;0.10;0.10;;;5.90;96.90;;;;;;5016939;28;20033;-73
2021/12/01 01:23:14;;;;;;;0.10;0.10;;;6.00;97.10;;;;;;5004452;28;20030;-72
2021/12/01 01:25:40;;;;;;;0.10;0.10;;;6.00;97.20;;;;;;5003195;28;20028;-72
2021/12/01 01:28:06;;;;;;;0.00;0.00;;;6.00;97.20;;;;;;5009639;28;20021;-72
2021/12/01 01:30:32;;;;;;;0.10;0.10;;;6.00;97.30;;;;;;4994707;28;20072;-72
2021/12/01 01:32:59;;;;;;;0.00;0.00;;;6.00;97.40;;;;;;5007089;28;20057;-72
2021/12/01 01:35:25;;;;;;;0.20;0.20;;;6.00;97.50;;;;;;5006202;28;20093;-72
2021/12/01 01:37:50;;;;;;;0.20;0.20;;;6.00;97.60;;;;;;5002972;28;20534;-72
2021/12/01 01:40:18;;;;;;;0.20;0.20;;;6.00;97.60;;;;;;5000292;28;20029;-72
2021/12/01 01:42:44;;;;;;;0.17;0.10;;;6.00;97.70;;;;;;5003606;28;21562;-72
2021/12/01 01:45:10;;;;;;;0.10;0.10;;;6.00;97.80;;;;;;5000486;28;20025;-72
2021/12/01 01:48:05;;;;;;;0.22;0.08;;;6.00;97.90;;;;;;5001728;28;20529;-72
2021/12/01 01:50:36;;;;;;;0.10;0.10;;;6.00;98.00;;;;;;4998010;28;20518;-72
2021/12/01 01:53:23;;;;;;;0.38;0.20;;;6.10;98.10;;;;;;5006236;28;20109;-72
2021/12/01 01:55:52;;;;;;;0.13;0.10;;;6.10;98.10;;;;;;5011445;28;20025;-72
2021/12/01 01:58:19;;;;;;;1.27;0.10;;;6.10;98.20;;;;;;5007997;28;20026;-72
2021/12/01 02:00:51;;;;;;;0.10;0.00;;;6.10;98.50;;;;;;5005623;28;21091;-72
2021/12/01 02:03:22;;;;;;;0.10;0.10;;;6.10;98.60;;;;;;5007526;28;20030;-72
2021/12/01 02:05:49;;;;;;;0.05;0.05;;;6.10;98.80;;;;;;5017507;28;20038;-72
2021/12/01 02:08:19;;;;;;;0.10;0.10;;;6.10;99.00;;;;;;5000153;28;20041;-72
2021/12/01 02:10:50;;;;;;;0.10;0.10;;;6.10;99.20;;;;;;5006406;28;20041;-72
2021/12/01 02:13:20;;;;;;;0.15;0.15;;;6.10;99.40;;;;;;5002735;28;20030;-72
2021/12/01 02:15:48;;;;;;;0.47;0.20;;;6.10;99.50;;;;;;5000727;28;20025;-72
2021/12/01 02:18:14;;;;;;;0.20;0.20;;;6.10;99.70;;;;;;5007224;28;20026;-72
2021/12/01 02:21:16;;;;;;;0.10;0.10;;;6.20;99.90;;;;;;5004473;28;20030;-72
2021/12/01 02:23:47;;;;;;;0.43;0.28;;;6.10;99.90;;;;;;5003027;28;20296;-72
2021/12/01 02:26:17;;;;;;;0.90;0.43;;;6.10;99.90;;;;;;5003659;28;20596;-72
2021/12/01 02:28:46;;;;;;;0.10;0.10;;;6.10;99.90;;;;;;5005007;28;20037;-72
2021/12/01 02:31:16;;;;;;;0.15;0.15;;;6.10;99.90;;;;;;5008473;28;20014;-72
2021/12/01 02:33:43;;;;;;;0.43;0.30;;;6.10;99.90;;;;;;5002910;28;20542;-72
2021/12/01 02:36:13;;;;;;;0.30;0.30;;;6.00;99.90;;;;;;5008758;28;20056;-72
2021/12/01 02:38:45;;;;;;;0.20;0.20;;;6.00;99.90;;;;;;5004231;28;20678;-72
2021/12/01 02:41:11;;;;;;;0.30;0.30;;;6.00;99.90;;;;;;5004403;28;20041;-72
2021/12/01 02:43:38;;;;;;;0.20;0.20;;;6.00;99.90;;;;;;5008557;28;20705;-72
2021/12/01 02:46:04;;;;;;;0.40;0.40;;;6.00;99.90;;;;;;5007455;28;20026;-72
2021/12/01 02:48:30;;;;;;;0.30;0.30;;;6.00;99.90;;;;;;5000760;28;20040;-72
2021/12/01 02:50:58;;;;;;;0.40;0.40;;;6.00;99.90;;;;;;5004929;28;20087;-73
2021/12/01 02:53:25;;;;;;;0.20;0.20;;;5.90;99.90;;;;;;5003941;28;20030;-72
2021/12/01 02:55:58;;;;;;;0.40;0.40;;;5.90;99.90;;;;;;5007254;28;20021;-72
2021/12/01 02:58:26;;;;;;;0.50;0.50;;;5.90;99.90;;;;;;5002036;28;20481;-73
2021/12/01 03:00:56;;;;;;;0.57;0.40;;;5.90;99.90;;;;;;5008583;28;20851;-72
2021/12/01 03:03:23;;;;;;;0.55;0.55;;;5.90;99.90;;;;;;5004791;28;20042;-72
2021/12/01 03:05:50;;;;;;;0.63;0.40;;;5.90;99.90;;;;;;5010627;28;20071;-72
2021/12/01 03:08:20;;;;;;;0.40;0.40;;;5.90;99.90;;;;;;5012016;28;20062;-73
2021/12/01 03:10:49;;;;;;;0.47;0.47;;;5.90;99.90;;;;;;5011845;28;20065;-72
2021/12/01 03:13:18;;;;;;;0.50;0.50;;;5.90;99.90;;;;;;5004822;28;20018;-72
2021/12/01 03:15:45;;;;;;;0.40;0.40;;;5.90;99.90;;;;;;5004367;28;20703;-72
2021/12/01 03:18:13;;;;;;;0.32;0.32;;;5.80;99.90;;;;;;5010229;28;20751;-72
2021/12/01 03:20:39;;;;;;;0.30;0.30;;;5.90;99.90;;;;;;5001920;28;20036;-72
2021/12/01 03:23:06;;;;;;;0.47;0.47;;;5.90;99.90;;;;;;5003751;28;20022;-72
2021/12/01 03:25:33;;;;;;;0.30;0.30;;;5.90;99.90;;;;;;5007430;28;20095;-72
2021/12/01 03:27:59;;;;;;;0.25;0.25;;;5.90;99.90;;;;;;5012258;28;20091;-73
2021/12/01 03:30:25;;;;;;;0.50;0.30;;;5.90;99.90;;;;;;5007347;28;20064;-72
2021/12/01 03:32:52;;;;;;;1.70;0.60;;;5.90;99.90;;;;;;5019010;28;20486;-72
2021/12/01 03:35:19;;;;;;;0.50;0.50;;;5.90;99.90;;;;;;5016623;28;20100;-72
2021/12/01 03:37:46;;;;;;;0.30;0.30;;;5.90;99.90;;;;;;5003693;28;20033;-72
2021/12/01 03:40:14;;;;;;;0.20;0.20;;;5.90;99.90;;;;;;5007413;28;20036;-72
2021/12/01 03:42:43;;;;;;;0.90;0.45;;;5.90;99.90;;;;;;5010616;28;20113;-72
2021/12/01 03:45:11;;;;;;;0.57;0.50;;;5.80;99.90;;;;;;5006104;28;20067;-72
2021/12/01 03:47:37;;;;;;;0.32;0.32;;;5.80;99.90;;;;;;5013327;28;20057;-72
2021/12/01 03:50:04;;;;;;;0.30;0.30;;;5.70;99.90;;;;;;5005377;28;20056;-72
2021/12/01 03:52:31;;;;;;;;;;;5.70;99.90;;;;;;5029138;28;20017;-72
2021/12/01 03:54:56;;;;;;;0.75;0.60;;;5.70;99.90;;;;;;5005892;28;20440;-73
2021/12/01 03:57:22;;;;;;;0.40;0.40;;;5.80;99.90;;;;;;5009745;28;20029;-72
2021/12/01 03:59:49;;;;;;;0.33;0.33;;;5.80;99.90;;;;;;5019768;28;20099;-72
2021/12/01 04:02:16;;;;;;;0.57;0.40;;;5.80;99.90;;;;;;5002986;28;20769;-72
2021/12/01 04:04:42;;;;;;;0.55;0.50;;;5.80;99.90;;;;;;5005919;28;20036;-72
2021/12/01 04:07:07;;;;;;;1.40;0.40;;;5.80;99.90;;;;;;5007311;28;20029;-72
2021/12/01 04:09:34;;;;;;;0.40;0.40;;;5.80;99.90;;;;;;5004376;28;20026;-72
2021/12/01 04:12:01;;;;;;;0.60;0.60;;;5.80;99.90;;;;;;5008917;28;20010;-72
2021/12/01 04:14:26;;;;;;;0.60;0.50;;;5.80;99.90;;;;;;5007909;28;20026;-72
2021/12/01 04:16:52;;;;;;;0.57;0.50;;;5.80;99.90;;;;;;5001210;28;20747;-72
2021/12/01 04:19:18;;;;;;;0.57;0.43;;;5.80;99.90;;;;;;4999858;28;20766;-72
2021/12/01 04:21:44;;;;;;;0.60;0.60;;;5.80;99.90;;;;;;5003828;28;20032;-72
2021/12/01 04:24:11;;;;;;;0.50;0.40;;;5.90;99.90;;;;;;5002847;28;20779;-72
2021/12/01 04:26:38;;;;;;;0.47;0.35;;;5.90;99.90;;;;;;5022562;28;20026;-72
2021/12/01 04:29:05;;;;;;;0.95;0.60;;;5.90;99.90;;;;;;5005548;28;20028;-72
2021/12/01 04:31:33;;;;;;;0.50;0.40;;;5.90;99.90;;;;;;5008610;28;20021;-72
2021/12/01 04:34:00;;;;;;;0.52;0.52;;;5.90;99.90;;;;;;4999264;28;20581;-72
2021/12/01 04:36:31;;;;;;;0.73;0.73;;;6.00;99.90;;;;;;5006337;28;20049;-72
2021/12/01 04:38:58;;;;;;;2.13;0.80;;;6.00;99.90;;;;;;4999096;28;20537;-72
2021/12/01 04:41:26;;;;;;;0.85;0.70;;;6.00;99.90;;;;;;5013132;28;20033;-72
2021/12/01 04:43:53;;;;;;;1.70;0.80;;;6.00;99.90;;;;;;5002168;28;20125;-72
2021/12/01 04:46:20;;;;;;;0.85;0.75;;;6.00;99.90;;;;;;5011347;28;20037;-72
2021/12/01 04:48:47;;;;;;;;;;;6.00;99.90;;;;;;5025132;28;20443;-72
2021/12/01 04:51:17;;;;;;;0.82;0.77;;;6.00;99.90;;;;;;5016493;28;19913;-72
2021/12/01 04:53:44;;;;;;;0.70;0.70;;;6.10;99.90;;;;;;5009273;28;20460;-72
2021/12/01 04:56:10;;;;;;;0.98;0.70;;;6.10;99.90;;;;;;5000414;28;20092;-72
2021/12/01 04:58:36;;;;;;;2.20;0.80;;;6.10;99.90;;;;;;5011796;28;20035;-72
2021/12/01 05:01:03;;;;;;;0.60;0.60;;;6.10;99.90;;;;;;4997208;28;20055;-72
2021/12/01 05:03:32;;;;;;;0.55;0.55;;;6.20;99.90;;;;;;5007277;28;20030;-73
2021/12/01 05:05:58;;;;;;;0.73;0.73;;;6.20;99.90;;;;;;5000108;28;20042;-72
2021/12/01 05:08:24;;;;;;;0.93;0.83;;;6.20;99.90;;;;;;5005919;28;20026;-72
2021/12/01 05:10:50;;;;;;;0.60;0.60;;;6.20;99.90;;;;;;5024569;28;20390;-72
2021/12/01 05:13:16;;;;;;;0.70;0.70;;;6.30;99.90;;;;;;5004852;28;20041;-72
2021/12/01 05:15:45;;;;;;;0.75;0.70;;;6.30;99.90;;;;;;5021784;28;20049;-72
2021/12/01 05:18:12;;;;;;;1.00;0.90;;;6.30;99.90;;;;;;5007800;28;20033;-72
2021/12/01 05:20:39;;;;;;;0.93;0.93;;;6.30;99.90;;;;;;5005603;28;20053;-72
2021/12/01 05:23:06;;;;;;;1.10;1.00;;;6.20;99.90;;;;;;5004164;28;20049;-72
2021/12/01 05:25:32;;;;;;;1.40;1.02;;;6.20;99.90;;;;;;5005035;28;20604;-73
2021/12/01 05:27:58;;;;;;;0.90;0.90;;;6.30;99.90;;;;;;5018168;28;20087;-73
2021/12/01 05:30:23;;;;;;;1.00;1.00;;;6.30;99.90;;;;;;5021331;28;20014;-72
2021/12/01 05:32:49;;;;;;;0.90;0.90;;;6.30;99.90;;;;;;5011561;28;20052;-72
2021/12/01 05:35:15;;;;;;;1.07;0.93;;;6.30;99.90;;;;;;5000958;28;20101;-72
2021/12/01 05:37:41;;;;;;;1.57;1.47;;;6.40;99.90;;;;;;5006239;28;20021;-72
2021/12/01 05:40:07;;;;;;;0.90;0.80;;;6.30;99.90;;;;;;5002799;28;20050;-72
2021/12/01 05:42:32;;;;;;;1.20;0.95;;;6.30;99.90;;;;;;5023494;28;20056;-72
2021/12/01 05:44:58;;;;;;;0.67;0.67;;;6.40;99.90;;;;;;4998484;28;20034;-72
2021/12/01 05:47:24;;;;;;;0.80;0.80;;;6.30;99.90;;;;;;5007965;28;20120;-72
2021/12/01 05:49:49;;;;;;;1.80;0.97;;;6.30;99.90;;;;;;5005620;28;20044;-72
2021/12/01 05:52:17;;;;;;;0.70;0.70;;;6.30;99.90;;;;;;5007386;28;20032;-72
2021/12/01 05:54:46;;;;;;;1.83;0.70;;;6.40;99.90;;;;;;5006163;28;21095;-73
2021/12/01 05:57:13;;;;;;;0.60;0.60;;;6.40;99.90;;;;;;5009021;28;20033;-73
2021/12/01 05:59:40;;;;;;;1.05;0.55;;;6.40;99.90;;;;;;5008089;28;20436;-73
2021/12/01 06:02:06;;;;;;;0.50;0.50;;;6.40;99.90;;;;;;4994373;28;20030;-73
2021/12/01 06:04:32;;;;;;;0.50;0.50;;;6.50;99.90;;;;;;5000857;28;20355;-73
2021/12/01 06:07:02;;;;;;;0.40;0.40;;;6.50;99.90;;;;;;5004583;28;20475;-81
2021/12/01 06:09:28;;;;;;;0.85;0.52;;;6.50;99.90;;;;;;5019079;28;20018;-71
2021/12/01 06:11:54;;;;;;;0.40;0.40;;;6.60;99.90;;;;;;5006352;28;20022;-72
2021/12/01 06:14:20;;;;;;;0.60;0.60;;;6.70;99.90;;;;;;5019431;28;20029;-72
2021/12/01 06:16:46;;;;;;;0.40;0.40;;;6.70;99.90;;;;;;5007525;28;20402;-71
2021/12/01 06:19:12;;;;;;;0.50;0.50;;;6.70;99.90;;;;;;4999083;28;20108;-71
2021/12/01 06:21:38;;;;;;;0.30;0.30;;;6.70;99.90;;;;;;5000647;28;20067;-71
2021/12/01 06:24:03;;;;;;;0.60;0.60;;;6.70;99.90;;;;;;5000017;28;20483;-65
2021/12/01 06:26:29;;;;;;;0.50;0.50;;;6.70;99.90;;;;;;5010227;28;20112;-65
2021/12/01 06:28:55;;;;;;;0.97;0.83;;;6.90;99.90;;;;;;5006696;28;20539;-65
2021/12/01 06:31:21;;;;;;;0.70;0.70;;;7.20;99.90;;;;;;4997963;28;20099;-65
2021/12/01 06:33:47;;;;;;;2.35;0.57;;;7.40;99.90;;;;;;5005599;28;20459;-65
2021/12/01 06:36:13;;;;;;;0.40;0.40;;;7.60;99.90;;;;;;5001282;28;20037;-65
2021/12/01 06:38:39;;;;;;;0.55;0.45;;;7.60;99.40;;;;;;5009775;28;20406;-65
2021/12/01 06:41:06;;;;;;;0.40;0.40;;;7.70;99.30;;;;;;5001339;28;20022;-72
2021/12/01 06:43:31;;;;;;;0.40;0.40;;;7.70;99.00;;;;;;5022105;28;20112;-71
2021/12/01 06:45:57;;;;;;;0.60;0.60;;;7.50;99.20;;;;;;5003488;28;20022;-71
2021/12/01 06:48:23;;;;;;;0.60;0.60;;;7.40;99.50;;;;;;5013329;28;20072;-72
2021/12/01 06:50:49;;;;;;;0.90;0.57;;;7.20;99.90;;;;;;4999668;28;20636;-72
2021/12/01 06:53:15;;;;;;;1.10;0.70;;;7.10;99.90;;;;;;5007403;28;20060;-71
2021/12/01 06:55:41;;;;;;;1.90;0.50;;;7.10;99.90;;;;;;5022216;28;20699;-71
2021/12/01 06:58:07;;;;;;;0.50;0.50;;;7.00;99.90;;;;;;5003702;28;20022;-72
2021/12/01 07:00:33;;;;;;;0.75;0.65;;;7.00;99.90;;;;;;5006471;28;20270;-71
2021/12/01 07:02:59;;;;;;;0.93;0.70;;;7.00;99.90;;;;;;5008977;28;20072;-72
2021/12/01 07:05:25;;;;;;;0.77;0.67;;;6.90;99.90;;;;;;5025057;28;20116;-72
2021/12/01 07:07:50;;;;;;;0.80;0.80;;;6.90;99.90;;;;;;5003133;28;20108;-71
2021/12/01 07:10:17;;;;;;;0.73;0.73;;;7.00;99.90;;;;;;5007999;28;20034;-71
2021/12/01 07:12:43;;;;;;;0.45;0.45;;;7.00;99.70;;;;;;5018600;28;21032;-72
2021/12/01 07:15:10;;;;;;;2.97;0.65;;;7.00;99.40;;;;;;5006242;28;20026;-72
2021/12/01 07:17:38;;;;;;;0.60;0.52;;;7.00;99.50;;;;;;5002167;28;20026;-72
2021/12/01 07:20:05;;;;;;;0.40;0.40;;;7.00;99.40;;;;;;5011220;28;20032;-72
2021/12/01 07:22:32;;;;;;;0.32;0.32;;;7.00;99.40;;;;;;5002469;28;20140;-71
2021/12/01 07:24:58;;;;;;;;;;;7.10;99.40;;;;;;5009572;28;20104;-71
2021/12/01 07:27:23;;;;;;;0.22;0.22;;;7.10;99.30;;;;;;5011585;28;20003;-71
2021/12/01 07:29:49;;;;;;;0.40;0.40;;;7.10;99.30;;;;;;5009047;28;20028;-72
2021/12/01 07:32:15;;;;;;;0.40;0.40;;;7.10;99.90;;;;;;5012723;28;20704;-71
2021/12/01 07:34:43;;;;;;;0.40;0.40;;;7.00;99.90;;;;;;5018634;28;20075;-72
2021/12/01 07:37:11;;;;;;;0.30;0.30;;;7.10;99.90;;;;;;5023234;28;20025;-72
2021/12/01 07:39:37;;;;;;;0.40;0.40;;;7.10;99.90;;;;;;5007156;28;20041;-72
2021/12/01 07:42:03;;;;;;;1.27;0.40;;;7.00;99.90;;;;;;5005420;28;20780;-72
2021/12/01 07:44:29;;;;;;;1.35;0.40;;;7.00;99.90;;;;;;5002687;28;20064;-72
2021/12/01 07:46:55;;;;;;;0.67;0.33;;;7.10;99.90;;;;;;5021203;28;20121;-72
2021/12/01 07:49:21;;;;;;;0.43;0.40;;;7.10;99.90;;;;;;5010726;28;20503;-72
2021/12/01 07:51:47;;;;;;;0.60;0.25;;;7.10;99.90;;;;;;5006867;28;20068;-72
2021/12/01 07:54:14;;;;;;;0.23;0.23;;;7.20;99.90;;;;;;5009006;28;20611;-72
2021/12/01 07:56:40;;;;;;;;;;;7.20;99.90;;;;;;5000109;28;20483;-71
2021/12/01 07:59:06;;;;;;;0.60;0.60;;;7.20;99.70;;;;;;5017430;28;20506;-72
2021/12/01 08:01:32;;;;;;;0.10;0.10;;;7.30;99.40;;;;;;5003346;28;20025;-72
2021/12/01 08:03:59;;;;;;;0.53;0.30;;;7.30;99.40;;;;;;5008113;28;20113;-72
2021/12/01 08:06:26;;;;;;;1.27;0.40;;;7.30;99.00;;;;;;5026409;28;20725;-71
2021/12/01 08:08:52;;;;;;;1.58;0.20;;;7.30;99.00;;;;;;5005517;28;20446;-72
2021/12/01 08:11:20;;;;;;;0.10;0.10;;;7.40;98.90;;;;;;5022159;28;20555;-72
2021/12/01 08:13:46;;;;;;;0.60;0.50;;;7.40;98.90;;;;;;5010218;28;20014;-72
2021/12/01 08:16:12;;;;;;;0.30;0.20;;;7.50;98.70;;;;;;5011272;28;20714;-71
2021/12/01 08:18:37;;;;;;;0.20;0.20;;;7.50;98.30;;;;;;5000608;28;20148;-72
2021/12/01 08:21:03;;;;;;;0.20;0.13;;;7.60;98.60;;;;;;5007094;28;20030;-71
2021/12/01 08:23:29;;;;;;;0.30;0.20;;;7.60;98.30;;;;;;5007892;28;20040;-72
2021/12/01 08:25:55;;;;;;;0.30;0.30;;;7.60;98.50;;;;;;5002924;28;20570;-72
2021/12/01 08:28:20;;;;;;;0.30;0.30;;;7.70;98.60;;;;;;5012367;28;20172;-72
2021/12/01 08:30:46;;;;;;;0.20;0.20;;;7.70;98.60;;;;;;5005516;28;20605;-72
2021/12/01 08:33:15;;;;;;;0.20;0.20;;;7.70;98.60;;;;;;5002594;28;20622;-72
2021/12/01 08:35:40;;;;;;;1.45;0.30;;;7.70;98.20;;;;;;5004270;28;20115;-72
2021/12/01 08:38:06;;;;;;;0.23;0.20;;;7.70;98.60;;;;;;5011153;28;20037;-72
2021/12/01 08:40:32;;;;;;;0.17;0.17;;;7.80;98.30;;;;;;5001984;28;20029;-72
2021/12/01 08:42:59;;;;;;;0.20;0.20;;;7.70;98.00;;;;;;5000441;28;20029;-72
2021/12/01 08:45:24;;;;;;;0.30;0.20;;;7.80;98.40;;;;;;5019574;28;20056;-72
2021/12/01 08:47:50;;;;;;;0.10;0.10;;;7.80;98.70;;;;;;5000803;28;20773;-72
2021/12/01 08:50:18;;;;;;;0.20;0.20;;;7.80;98.60;;;;;;5007438;28;20021;-72
2021/12/01 08:52:45;;;;;;;0.15;0.15;;;7.80;98.90;;;;;;5003168;28;20124;-72
2021/12/01 08:55:11;;;;;;;0.30;0.30;;;7.80;99.10;;;;;;5021299;28;20021;-72
2021/12/01 08:57:38;;;;;;;0.35;0.30;;;7.80;98.90;;;;;;5004385;28;20047;-72
2021/12/01 09:00:06;;;;;;;0.60;0.22;;;7.80;99.40;;;;;;5009633;28;20633;-72
2021/12/01 09:02:32;;;;;;;0.45;0.30;;;7.80;99.50;;;;;;4999183;28;20037;-72
2021/12/01 09:04:57;;;;;;;0.40;0.33;;;7.80;99.60;;;;;;4997876;28;20526;-72
2021/12/01 09:07:23;;;;;;;0.03;0.03;;;7.90;99.60;;;;;;5001311;28;20374;-72
2021/12/01 09:09:49;;;;;;;0.87;0.37;;;7.90;99.90;;;;;;5004811;28;20036;-71
2021/12/01 09:12:14;;;;;;;0.20;0.20;;;7.90;99.90;;;;;;5001116;28;20049;-72
2021/12/01 09:14:41;;;;;;;0.07;0.07;;;7.90;99.80;;;;;;5005457;28;20539;-73
2021/12/01 09:17:09;;;;;;;0.43;0.30;;;7.90;99.70;;;;;;5004107;28;20045;-72
2021/12/01 09:19:36;;;;;;;2.80;0.30;;;8.00;99.80;;;;;;4999230;28;20734;-72
2021/12/01 09:22:02;;;;;;;0.65;0.25;;;8.00;99.90;;;;;;5008292;28;20026;-71
2021/12/01 09:24:28;;;;;;;0.23;0.10;;;8.00;99.90;;;;;;5006108;28;20043;-72
2021/12/01 09:26:53;;;;;;;0.10;0.10;;;8.00;99.90;;;;;;4995798;28;21401;-72
2021/12/01 09:29:19;;;;;;;0.23;0.20;;;8.00;99.90;;;;;;5009054;28;20119;-72
2021/12/01 09:31:45;;;;;;;0.50;0.20;;;8.00;99.90;;;;;;5019071;28;20029;-72
2021/12/01 09:34:11;;;;;;;0.10;0.10;;;8.00;99.90;;;;;;5001917;28;20939;-72
2021/12/01 09:36:37;;;;;;;0.30;0.20;;;7.90;99.90;;;;;;5000984;28;20030;-72
2021/12/01 09:39:03;;;;;;;0.50;0.17;;;7.90;99.90;;;;;;5004140;28;20472;-71
2021/12/01 09:41:29;;;;;;;;;;;7.80;99.90;;;;;;5025636;28;20378;-72
2021/12/01 09:43:55;;;;;;;0.93;0.20;;;7.80;99.90;;;;;;4999627;28;19917;-72
2021/12/01 09:46:21;;;;;;;0.20;0.20;;;7.80;99.90;;;;;;5004177;28;20038;-71
2021/12/01 09:48:47;;;;;;;0.45;0.30;;;7.80;99.90;;;;;;5000793;28;20030;-72
2021/12/01 09:51:17;;;;;;;0.80;0.23;;;7.80;99.90;;;;;;5004925;28;21577;-72
2021/12/01 09:53:44;;;;;;;0.20;0.20;;;7.90;99.90;;;;;;4995742;28;20025;-72
2021/12/01 09:56:11;;;;;;;0.17;0.17;;;7.80;99.90;;;;;;5005997;28;20033;-71
2021/12/01 09:58:37;;;;;;;;;;;7.80;99.90;;;;;;5003156;28;20057;-71
2021/12/01 10:01:09;;;;;;;0.43;0.30;;;7.80;99.90;;;;;;5000988;28;20343;-72
2021/12/01 10:03:35;;;;;;;0.55;0.30;;;7.80;99.90;;;;;;5000186;28;20075;-71
2021/12/01 10:06:13;;;;;;;0.28;0.28;;;7.80;99.90;;;;;;5002474;28;20044;-72
2021/12/01 10:08:43;;;;;;;0.20;0.20;;;7.80;99.90;;;;;;5004738;28;20029;-72
2021/12/01 10:11:14;;;;;;;1.10;0.30;;;7.80;99.90;;;;;;5007061;28;20013;-72
2021/12/01 10:13:57;;;;;;;0.35;0.20;;;7.80;99.90;;;;;;5008781;28;20418;-72
2021/12/01 10:16:25;;;;;;;0.20;0.20;;;7.80;99.90;;;;;;5009230;28;20067;-71
2021/12/01 10:18:59;;;;;;;0.38;0.30;;;7.90;99.90;;;;;;5002029;28;20099;-71
2021/12/01 10:21:35;;;;;;;0.75;0.20;;;7.90;99.90;;;;;;5015303;28;20092;-72
2021/12/01 10:24:06;;;;;;;0.65;0.28;;;7.90;99.90;;;;;;5024962;28;20112;-71
2021/12/01 10:26:46;;;;;;;0.60;0.60;;;7.90;99.90;;;;;;5003186;28;20048;-71
2021/12/01 10:29:21;;;;;;;0.28;0.20;;;8.00;99.80;;;;;;5016983;28;20366;-72
2021/12/01 10:31:58;;;;;;;0.30;0.30;;;8.00;99.80;;;;;;5016512;28;20032;-72
2021/12/01 10:34:23;;;;;;;0.43;0.43;;;8.00;99.60;;;;;;5005662;28;20046;-72
2021/12/01 10:37:05;;;;;;;0.50;0.30;;;8.10;99.70;;;;;;5000027;28;20950;-72
2021/12/01 10:39:31;;;;;;;1.45;0.40;;;8.10;99.70;;;;;;5007388;28;20029;-72
2021/12/01 10:42:06;;;;;;;0.67;0.40;;;8.10;99.70;;;;;;5006527;28;20025;-72
2021/12/01 10:44:33;;;;;;;0.47;0.28;;;8.10;99.60;;;;;;5007757;28;20033;-72
2021/12/01 10:47:10;;;;;;;1.10;0.65;;;8.20;99.00;;;;;;5003766;28;20046;-72
2021/12/01 10:49:40;;;;;;;1.60;0.50;;;8.20;99.00;;;;;;5006796;28;20025;-71
2021/12/01 10:52:24;;;;;;;0.52;0.32;;;8.20;99.10;;;;;;5009668;28;20040;-72
2021/12/01 10:55:04;;;;;;;0.80;0.52;;;8.30;99.60;;;;;;5004016;28;20057;-72
2021/12/01 10:57:30;;;;;;;0.80;0.65;;;8.20;99.30;;;;;;5028489;28;20139;-72
2021/12/01 10:59:56;;;;;;;3.83;1.00;;;8.30;99.30;;;;;;4999042;28;20505;-72
2021/12/01 11:02:22;;;;;;;1.70;1.20;;;8.20;99.30;;;;;;5007602;28;20463;-72
2021/12/01 11:04:50;;;;;;;;;;;8.30;99.50;;;;;;5006919;28;20022;-72
2021/12/01 11:07:31;;;;;;;3.40;1.98;;;8.20;99.50;;;;;;5002098;28;19916;-72
2021/12/01 11:10:09;;;;;;;4.38;2.17;;;8.30;99.80;;;;;;5003371;28;20026;-72
2021/12/01 11:12:34;;;;;;;1.23;0.80;;;8.30;99.90;;;;;;5005216;28;20029;-72
2021/12/01 11:15:15;;;;;;;1.43;1.33;;;8.30;99.70;;;;;;5006024;28;20080;-72
2021/12/01 11:17:42;;;;;;;0.88;0.70;;;8.20;99.90;;;;;;5007883;28;20025;-72
2021/12/01 11:20:08;;;;;;;0.57;0.57;;;8.30;99.90;;;;;;4998055;28;20030;-72
2021/12/01 11:22:36;;;;;;;2.30;0.55;;;8.40;99.70;;;;;;5010067;28;20034;-72
2021/12/01 11:25:24;;;;;;;0.60;0.45;;;8.50;99.70;;;;;;5000800;28;20132;-72
2021/12/01 11:27:50;;;;;;;1.00;0.60;;;8.50;99.10;;;;;;5016985;28;20033;-72
2021/12/01 11:30:17;;;;;;;1.93;0.50;;;8.60;99.10;;;;;;5000083;28;20040;-72
2021/12/01 11:32:44;;;;;;;1.48;0.73;;;8.60;99.30;;;;;;5001916;28;21462;-72
2021/12/01 11:35:10;;;;;;;;;;;8.70;99.10;;;;;;4999272;28;20549;-72
2021/12/01 11:37:37;;;;;;;2.28;0.77;;;8.70;98.80;;;;;;5002903;28;19905;-72
2021/12/01 11:40:03;;;;;;;0.52;0.52;;;8.80;98.40;;;;;;5007377;28;20022;-72
2021/12/01 11:42:31;;;;;;;0.52;0.52;;;8.90;98.80;;;;;;5004700;28;20045;-71
2021/12/01 11:44:58;;;;;;;2.17;0.93;;;8.90;97.60;;;;;;5003797;28;20021;-71
2021/12/01 11:47:24;;;;;;;2.90;1.10;;;8.90;97.90;;;;;;5009637;28;20380;-71
2021/12/01 11:49:52;;;;;;;1.67;1.00;;;8.90;98.20;;;;;;5008411;28;20079;-71
2021/12/01 11:52:35;;;;;;;1.27;1.10;;;9.00;98.40;;;;;;5005218;28;20013;-71
2021/12/01 11:55:01;;;;;;;1.95;1.10;;;9.00;97.60;;;;;;5002720;28;20056;-72
2021/12/01 11:57:39;;;;;;;1.40;1.10;;;8.90;97.60;;;;;;5012748;28;20111;-70
2021/12/01 12:00:06;;;;;;;1.67;0.82;;;8.70;98.00;;;;;;5003292;28;20084;-71
2021/12/01 12:02:33;;;;;;;0.80;0.80;;;8.60;98.50;;;;;;5013497;28;20026;-71
2021/12/01 12:04:59;;;;;;;3.47;0.80;;;8.50;98.80;;;;;;4996910;28;20034;-72
2021/12/01 12:07:25;;;;;;;1.67;1.00;;;8.50;99.20;;;;;;5023036;28;20036;-72
2021/12/01 12:10:18;;;;;;;0.80;0.70;;;8.50;99.60;;;;;;5024363;28;20025;-72
2021/12/01 12:13:04;;;;;;;1.45;0.70;;;8.50;99.70;;;;;;5007822;28;20660;-71
2021/12/01 12:15:33;;;;;;;1.50;1.17;;;8.40;99.10;;;;;;5008778;28;20105;-72
2021/12/01 12:17:59;;;;;;;1.65;1.00;;;8.40;99.60;;;;;;5001209;28;20034;-71
2021/12/01 12:20:28;;;;;;;4.50;1.30;;;8.40;98.90;;;;;;5019380;28;20364;-71
2021/12/01 12:22:55;;;;;;;2.65;1.35;;;8.30;99.00;;;;;;5017548;28;20044;-71
2021/12/01 12:25:36;;;;;;;1.67;0.93;;;8.30;98.60;;;;;;5009238;28;20057;-72
2021/12/01 12:28:25;;;;;;;1.48;1.08;;;8.40;98.80;;;;;;5003891;28;20108;-72
2021/12/01 12:30:52;;;;;;;2.17;1.20;;;8.30;99.10;;;;;;5003556;28;20026;-71
2021/12/01 12:33:30;;;;;;;3.75;1.48;;;8.50;99.30;;;;;;4994125;28;20023;-72
2021/12/01 12:36:01;;;;;;;3.05;1.30;;;8.40;98.90;;;;;;4995733;28;20017;-72
2021/12/01 12:38:27;;;;;;;3.00;1.45;;;8.50;98.70;;;;;;5002310;28;20013;-72
2021/12/01 12:41:07;;;;;;;2.25;1.20;;;8.50;98.80;;;;;;5004357;28;20021;-72
2021/12/01 12:43:35;;;;;;;4.35;1.40;;;8.60;98.70;;;;;;5001951;28;20092;-72
2021/12/01 12:46:17;;;;;;;1.50;1.30;;;8.70;99.00;;;;;;5004301;28;20072;-72
2021/12/01 12:48:54;;;;;;;4.22;1.13;;;8.70;99.20;;;;;;5004993;28;20095;-72
2021/12/01 12:51:30;;;;;;;1.75;1.13;;;8.70;99.50;;;;;;5004924;28;20029;-72
2021/12/01 12:54:07;;;;;;;2.15;1.20;;;8.70;99.50;;;;;;5021724;28;20072;-72
2021/12/01 12:56:38;;;;;;;2.45;1.40;;;8.80;99.40;;;;;;5002357;28;20026;-73
2021/12/01 12:59:22;;;;;;;2.35;1.30;;;8.90;99.50;;;;;;5010257;28;20479;-72
2021/12/01 13:01:52;;;;;;;1.30;0.90;;;9.10;99.20;;;;;;4998759;28;20032;-72
2021/12/01 13:05:00;;;;;;;1.65;1.10;;;9.10;98.60;;;;;;5018009;28;20105;-73
2021/12/01 13:07:33;;;;;;;4.03;1.17;;;9.20;97.30;;;;;;5000072;28;20076;-73
2021/12/01 13:10:13;;;;;;;2.28;0.85;;;9.30;96.40;;;;;;5001160;28;20026;-73
2021/12/01 13:13:00;;;;;;;1.67;0.82;;;9.30;95.50;;;;;;4999540;28;20093;-73
2021/12/01 13:15:29;;;;;;;2.05;1.33;;;9.40;95.40;;;;;;5004039;28;20018;-73